Time;durP1;ratioP1;P1;durP2;ratioP2;P2;SDS_P1;SDS_P2;PMS_P1;PMS_P2;Temp;Humidity;BMP_temperature;BMP_pressure;BME280_temperature;BME280_humidity;BME280_pressure;Samples;Min_cycle;Max_cycle;Signal;HPM_P1;HPM_P2
2022/08/10 00:00:48;;;;;;;;;;;26.30;46.10;;;;;;5041216;28;89393;-38
2022/08/10 00:03:14;;;;;;;;;;;26.30;46.30;;;;;;5043216;27;87140;-38
2022/08/10 00:05:39;;;;;;;;;;;26.30;46.30;;;;;;5045714;27;87277;-38
2022/08/10 00:08:05;;;;;;;;;;;26.30;46.30;;;;;;5048114;28;88213;-38
2022/08/10 00:10:30;;;;;;;;;;;26.30;46.30;;;;;;5045908;28;87580;-38
2022/08/10 00:12:56;;;;;;;;;;;26.30;46.30;;;;;;5045623;28;86275;-38
2022/08/10 00:15:22;;;;;;;;;;;26.30;46.40;;;;;;5045563;28;87193;-38
2022/08/10 00:17:47;;;;;;;;;;;26.30;46.40;;;;;;5045428;27;88757;-38
2022/08/10 00:20:13;;;;;;;;;;;26.30;46.40;;;;;;5044434;28;88864;-38
2022/08/10 00:22:39;;;;;;;;;;;26.30;46.40;;;;;;5045721;28;87116;-38
2022/08/10 00:25:05;;;;;;;;;;;26.20;46.40;;;;;;5045259;27;88825;-37
2022/08/10 00:27:30;;;;;;;;;;;26.20;46.50;;;;;;5044761;28;88786;-38
2022/08/10 00:29:56;;;;;;;;;;;26.20;46.50;;;;;;5048491;28;87005;-38
2022/08/10 00:32:21;;;;;;;;;;;26.20;46.60;;;;;;5044965;28;88154;-38
2022/08/10 00:34:47;;;;;;;;;;;26.20;46.60;;;;;;5045120;28;87122;-37
2022/08/10 00:37:13;;;;;;;;;;;26.20;46.60;;;;;;5045801;27;87746;-37
2022/08/10 00:39:39;;;;;;;;;;;26.20;46.70;;;;;;5045037;28;87959;-38
2022/08/10 00:42:08;;;;;;;;;;;26.10;46.60;;;;;;5045418;28;87210;-38
2022/08/10 00:44:35;;;;;;;;;;;26.10;46.60;;;;;;5044644;27;88143;-37
2022/08/10 00:47:00;;;;;;;;;;;26.10;46.60;;;;;;5044588;28;88433;-38
2022/08/10 00:49:26;;;;;;;;;;;26.10;46.70;;;;;;5045292;28;86979;-38
2022/08/10 00:51:52;;;;;;;;;;;26.10;46.70;;;;;;5047498;27;87262;-38
2022/08/10 00:54:18;;;;;;;;;;;26.10;46.70;;;;;;5045047;28;87046;-38
2022/08/10 00:56:43;;;;;;;;;;;26.10;46.70;;;;;;5045000;27;89032;-38
2022/08/10 00:59:09;;;;;;;;;;;26.10;46.70;;;;;;5044721;28;88233;-37
2022/08/10 01:01:34;;;;;;;;;;;26.00;46.70;;;;;;5044975;28;86502;-38
2022/08/10 01:04:01;;;;;;;;;;;26.00;46.70;;;;;;5044856;28;86940;-38
2022/08/10 01:06:53;;;;;;;;;;;26.00;46.80;;;;;;5044316;28;89647;-37
2022/08/10 01:09:32;;;;;;;;;;;26.00;46.80;;;;;;5034062;28;89038;-37
2022/08/10 01:12:01;;;;;;;;;;;26.00;46.90;;;;;;5044892;27;88575;-38
2022/08/10 01:15:05;;;;;;;;;;;26.00;46.90;;;;;;5044843;27;91051;-38
2022/08/10 01:17:36;;;;;;;;;;;26.00;46.90;;;;;;5022037;28;87404;-38
2022/08/10 01:20:02;;;;;;;;;;;26.00;47.00;;;;;;5021872;28;88328;-38
2022/08/10 01:22:36;;;;;;;;;;;25.90;46.90;;;;;;5032824;27;87173;-37
2022/08/10 01:25:17;;;;;;;;;;;26.00;47.10;;;;;;5044362;27;86939;-37
2022/08/10 01:28:02;;;;;;;;;;;25.90;47.00;;;;;;5044725;28;86325;-38
2022/08/10 01:30:30;;;;;;;;;;;25.90;47.00;;;;;;5044079;28;87194;-38
2022/08/10 01:33:12;;;;;;;;;;;25.90;47.10;;;;;;5044388;28;87525;-38
2022/08/10 01:35:45;;;;;;;;;;;25.80;47.00;;;;;;5043279;28;89031;-37
2022/08/10 01:38:17;;;;;;;;;;;25.90;47.10;;;;;;5047430;28;87000;-38
2022/08/10 01:40:48;;;;;;;;;;;25.90;47.10;;;;;;5043749;28;88406;-38
2022/08/10 01:43:16;;;;;;;;;;;25.80;47.10;;;;;;5044223;28;87283;-37
2022/08/10 01:45:43;;;;;;;;;;;25.80;47.10;;;;;;5044326;27;87292;-37
2022/08/10 01:48:30;;;;;;;;;;;25.80;47.20;;;;;;5043682;28;88186;-38
2022/08/10 01:51:13;;;;;;;;;;;25.70;47.10;;;;;;5044327;28;87058;-37
2022/08/10 01:53:41;;;;;;;;;;;25.80;47.20;;;;;;5044599;28;86691;-38
2022/08/10 01:56:09;;;;;;;;;;;25.80;47.20;;;;;;5043510;28;89965;-37
2022/08/10 01:58:35;;;;;;;;;;;25.70;47.10;;;;;;5043627;28;87783;-38
2022/08/10 02:01:01;;;;;;;;;;;25.70;47.10;;;;;;5045646;27;88084;-38
2022/08/10 02:03:27;;;;;;;;;;;25.70;47.20;;;;;;5043920;28;87098;-37
2022/08/10 02:05:54;;;;;;;;;;;25.70;47.20;;;;;;5044032;27;87227;-38
2022/08/10 02:08:21;;;;;;;;;;;25.70;47.30;;;;;;5043470;28;87928;-38
2022/08/10 02:10:48;;;;;;;;;;;25.70;47.40;;;;;;5043898;28;87063;-37
2022/08/10 02:13:15;;;;;;;;;;;25.70;47.40;;;;;;5043084;27;89040;-37
2022/08/10 02:15:42;;;;;;;;;;;25.70;47.40;;;;;;5043157;28;89658;-38
2022/08/10 02:18:08;;;;;;;;;;;25.70;47.40;;;;;;5044185;28;86108;-38
2022/08/10 02:20:36;;;;;;;;;;;25.70;47.50;;;;;;5046302;28;86998;-38
2022/08/10 02:23:07;;;;;;;;;;;25.70;47.40;;;;;;5043547;28;87087;-38
2022/08/10 02:25:33;;;;;;;;;;;25.60;47.40;;;;;;5043267;27;87760;-37
2022/08/10 02:27:59;;;;;;;;;;;25.60;47.50;;;;;;5042535;28;89802;-37
2022/08/10 02:30:25;;;;;;;;;;;25.50;47.40;;;;;;5043898;28;87227;-38
2022/08/10 02:32:51;;;;;;;;;;;25.50;47.40;;;;;;5043564;27;87359;-38
2022/08/10 02:35:18;;;;;;;;;;;25.50;47.50;;;;;;5042899;28;89372;-38
2022/08/10 02:37:46;;;;;;;;;;;25.50;47.50;;;;;;5043452;28;87047;-38
2022/08/10 02:40:11;;;;;;;;;;;25.50;47.50;;;;;;5043166;27;87734;-37
2022/08/10 02:42:51;;;;;;;;;;;25.50;47.50;;;;;;5046146;28;87052;-37
2022/08/10 02:45:18;;;;;;;;;;;25.50;47.60;;;;;;5043514;27;86987;-37
2022/08/10 02:48:00;;;;;;;;;;;25.50;47.60;;;;;;5043064;28;88109;-37
2022/08/10 02:50:27;;;;;;;;;;;25.50;47.70;;;;;;5042574;28;88035;-37
2022/08/10 02:52:56;;;;;;;;;;;25.50;47.60;;;;;;5042754;27;89809;-37
2022/08/10 02:55:34;;;;;;;;;;;25.50;47.70;;;;;;5042665;28;88038;-37
2022/08/10 02:58:04;;;;;;;;;;;25.50;47.70;;;;;;5042951;28;87125;-37
2022/08/10 03:00:29;;;;;;;;;;;25.40;47.70;;;;;;5042519;28;87590;-38
2022/08/10 03:02:55;;;;;;;;;;;25.40;47.70;;;;;;5042650;28;88128;-37
2022/08/10 03:05:21;;;;;;;;;;;25.40;47.80;;;;;;5045882;28;87127;-37
2022/08/10 03:08:13;;;;;;;;;;;25.40;47.80;;;;;;5043163;28;86975;-38
2022/08/10 03:10:40;;;;;;;;;;;25.30;47.80;;;;;;5041435;28;87300;-37
2022/08/10 03:13:07;;;;;;;;;;;25.30;47.80;;;;;;5042736;28;89172;-37
2022/08/10 03:15:33;;;;;;;;;;;25.30;47.80;;;;;;5041489;28;88981;-38
2022/08/10 03:18:00;;;;;;;;;;;25.30;47.90;;;;;;5042780;28;87076;-37
2022/08/10 03:20:27;;;;;;;;;;;25.30;47.90;;;;;;5042912;27;87326;-38
2022/08/10 03:22:53;;;;;;;;;;;25.30;47.90;;;;;;5042450;28;87881;-38
2022/08/10 03:25:20;;;;;;;;;;;25.30;47.90;;;;;;5042843;28;87095;-38
2022/08/10 03:27:47;;;;;;;;;;;25.30;47.90;;;;;;5045333;27;87365;-38
2022/08/10 03:30:12;;;;;;;;;;;25.30;48.00;;;;;;5042788;28;87164;-37
2022/08/10 03:32:38;;;;;;;;;;;25.30;48.00;;;;;;5042946;28;87446;-38
2022/08/10 03:35:04;;;;;;;;;;;25.20;48.00;;;;;;5042086;28;88245;-37
2022/08/10 03:37:30;;;;;;;;;;;25.20;48.00;;;;;;5042300;27;87166;-37
2022/08/10 03:39:56;;;;;;;;;;;25.20;48.00;;;;;;5045526;28;87992;-37
2022/08/10 03:42:22;;;;;;;;;;;25.20;48.00;;;;;;5045814;28;87892;-37
2022/08/10 03:44:49;;;;;;;;;;;25.20;48.20;;;;;;5046023;28;87165;-38
2022/08/10 03:47:16;;;;;;;;;;;25.20;48.10;;;;;;5045757;28;87298;-38
2022/08/10 03:49:42;;;;;;;;;;;25.20;48.10;;;;;;5048413;28;89274;-38
2022/08/10 03:52:08;;;;;;;;;;;25.10;48.10;;;;;;5046221;28;87407;-38
2022/08/10 03:54:34;;;;;;;;;;;25.10;48.10;;;;;;5045417;28;89668;-37
2022/08/10 03:57:00;;;;;;;;;;;25.10;48.20;;;;;;5046453;28;86404;-38
2022/08/10 03:59:25;;;;;;;;;;;25.10;48.20;;;;;;5046246;28;86868;-38
2022/08/10 04:01:51;;;;;;;;;;;25.10;48.20;;;;;;5044782;28;89416;-38
2022/08/10 04:04:17;;;;;;;;;;;25.10;48.20;;;;;;5045195;28;87890;-38
2022/08/10 04:06:43;;;;;;;;;;;25.00;48.20;;;;;;5045967;27;88378;-38
2022/08/10 04:09:09;;;;;;;;;;;25.10;48.30;;;;;;5045378;28;89327;-38
2022/08/10 04:11:35;;;;;;;;;;;25.00;48.30;;;;;;5048775;28;86998;-37
2022/08/10 04:14:02;;;;;;;;;;;25.00;48.30;;;;;;5044867;28;88830;-38
2022/08/10 04:16:27;;;;;;;;;;;25.00;48.30;;;;;;5045729;28;87076;-37
2022/08/10 04:18:53;;;;;;;;;;;25.00;48.30;;;;;;5045788;28;87345;-38
2022/08/10 04:21:22;;;;;;;;;;;25.00;48.40;;;;;;5045818;28;87107;-37
2022/08/10 04:23:49;;;;;;;;;;;25.00;48.40;;;;;;5045431;28;87133;-37
2022/08/10 04:26:15;;;;;;;;;;;25.00;48.40;;;;;;5045316;27;88127;-38
2022/08/10 04:28:40;;;;;;;;;;;25.00;48.40;;;;;;5044587;28;89112;-38
2022/08/10 04:31:07;;;;;;;;;;;24.90;48.40;;;;;;5048304;28;87069;-37
2022/08/10 04:33:33;;;;;;;;;;;24.90;48.50;;;;;;5045008;28;88050;-38
2022/08/10 04:36:00;;;;;;;;;;;24.90;48.50;;;;;;5045363;28;86958;-37
2022/08/10 04:38:26;;;;;;;;;;;24.90;48.50;;;;;;5045342;27;87431;-37
2022/08/10 04:40:52;;;;;;;;;;;24.90;48.50;;;;;;5044951;28;87934;-37
2022/08/10 04:43:17;;;;;;;;;;;24.90;48.60;;;;;;5045435;28;87052;-37
2022/08/10 04:45:44;;;;;;;;;;;24.90;48.60;;;;;;5045561;27;88048;-38
2022/08/10 04:48:09;;;;;;;;;;;24.90;48.60;;;;;;5044586;28;89353;-37
2022/08/10 04:50:35;;;;;;;;;;;24.80;48.60;;;;;;5043922;27;87138;-37
2022/08/10 04:53:00;;;;;;;;;;;24.80;48.60;;;;;;5047135;28;88399;-37
2022/08/10 04:55:26;;;;;;;;;;;24.80;48.60;;;;;;5044671;28;87106;-38
2022/08/10 04:57:51;;;;;;;;;;;24.80;48.70;;;;;;5045188;28;87308;-37
2022/08/10 05:00:17;;;;;;;;;;;24.80;48.70;;;;;;5043776;28;89345;-38
2022/08/10 05:02:42;;;;;;;;;;;24.80;48.70;;;;;;5044896;28;87166;-37
2022/08/10 05:05:08;;;;;;;;;;;24.80;48.80;;;;;;5044877;28;87267;-37
2022/08/10 05:07:33;;;;;;;;;;;24.80;48.70;;;;;;5044299;28;89690;-37
2022/08/10 05:09:59;;;;;;;;;;;24.80;48.70;;;;;;5045360;28;86508;-38
2022/08/10 05:12:25;;;;;;;;;;;24.80;49.40;;;;;;5044765;28;87163;-37
2022/08/10 05:14:51;;;;;;;;;;;24.80;48.80;;;;;;5046981;28;88419;-38
2022/08/10 05:17:17;;;;;;;;;;;24.80;48.80;;;;;;5043715;27;88798;-38
2022/08/10 05:19:42;;;;;;;;;;;24.80;48.80;;;;;;5044269;28;87262;-38
2022/08/10 05:22:08;;;;;;;;;;;24.80;48.90;;;;;;5044716;28;87099;-38
2022/08/10 05:24:34;;;;;;;;;;;24.80;48.90;;;;;;5044438;27;88220;-38
2022/08/10 05:26:59;;;;;;;;;;;24.80;48.90;;;;;;5044424;28;87152;-38
2022/08/10 05:29:25;;;;;;;;;;;24.80;48.90;;;;;;5044451;28;87160;-37
2022/08/10 05:31:50;;;;;;;;;;;24.80;48.90;;;;;;5044531;28;87814;-37
2022/08/10 05:34:16;;;;;;;;;;;24.80;48.90;;;;;;5044559;28;87367;-37
2022/08/10 05:36:42;;;;;;;;;;;24.80;49.00;;;;;;5047185;28;87118;-38
2022/08/10 05:39:09;;;;;;;;;;;24.80;49.00;;;;;;5043945;28;88024;-38
2022/08/10 05:41:34;;;;;;;;;;;24.70;48.90;;;;;;5043733;28;88014;-38
2022/08/10 05:44:00;;;;;;;;;;;24.70;48.90;;;;;;5044376;27;87703;-37
2022/08/10 05:46:26;;;;;;;;;;;24.70;49.00;;;;;;5043411;28;89115;-37
2022/08/10 05:48:51;;;;;;;;;;;24.70;49.00;;;;;;5044076;28;86956;-38
2022/08/10 05:51:17;;;;;;;;;;;24.70;49.00;;;;;;5044298;28;87545;-37
2022/08/10 05:53:43;;;;;;;;;;;24.80;49.10;;;;;;5043602;28;88739;-38
2022/08/10 05:56:09;;;;;;;;;;;24.70;49.10;;;;;;5044194;28;87153;-37
2022/08/10 05:58:35;;;;;;;;;;;24.70;49.10;;;;;;5047256;28;87671;-38
2022/08/10 06:01:02;;;;;;;;;;;24.70;49.10;;;;;;5043138;27;87182;-38
2022/08/10 06:03:30;;;;;;;;;;;24.70;49.20;;;;;;5044154;27;87394;-37
2022/08/10 06:05:57;;;;;;;;;;;24.80;49.10;;;;;;5042966;28;88902;-38
2022/08/10 06:08:25;;;;;;;;;;;24.70;49.20;;;;;;5043911;28;87160;-37
2022/08/10 06:10:53;;;;;;;;;;;24.70;49.30;;;;;;5043925;27;87337;-37
2022/08/10 06:16:12;;;;;;;;;;;24.70;49.20;;;;;;5033698;28;87132;-38
2022/08/10 06:18:37;;;;;;;;;;;24.70;49.40;;;;;;5046034;28;88780;-37
2022/08/10 06:21:04;;;;;;;;;;;24.80;49.40;;;;;;5043742;28;87006;-38
2022/08/10 06:23:30;;;;;;;;;;;24.70;49.40;;;;;;5043988;27;87390;-38
2022/08/10 06:25:55;;;;;;;;;;;24.70;49.50;;;;;;5043244;28;88097;-37
2022/08/10 06:28:22;;;;;;;;;;;24.70;49.50;;;;;;5043396;28;87178;-38
2022/08/10 06:30:49;;;;;;;;;;;24.70;49.60;;;;;;5043057;27;88292;-37
2022/08/10 06:33:16;;;;;;;;;;;24.80;49.60;;;;;;5043158;28;88263;-37
2022/08/10 06:35:42;;;;;;;;;;;24.80;49.60;;;;;;5043385;28;86948;-38
2022/08/10 06:38:08;;;;;;;;;;;24.70;49.50;;;;;;5043551;27;87539;-37
2022/08/10 06:40:36;;;;;;;;;;;24.70;49.60;;;;;;5046177;28;87390;-38
2022/08/10 06:43:04;;;;;;;;;;;24.70;49.60;;;;;;5043472;28;87378;-37
2022/08/10 06:45:40;;;;;;;;;;;24.80;49.70;;;;;;5043008;28;88131;-38
2022/08/10 06:48:18;;;;;;;;;;;24.80;49.80;;;;;;5043708;28;86365;-37
2022/08/10 06:50:46;;;;;;;;;;;24.80;49.70;;;;;;5043316;27;86830;-38
2022/08/10 06:53:18;;;;;;;;;;;24.80;49.90;;;;;;5042388;28;89681;-37
2022/08/10 06:55:47;;;;;;;;;;;24.70;49.80;;;;;;5040847;28;88053;-38
2022/08/10 06:58:13;;;;;;;;;;;24.70;50.00;;;;;;5042994;28;88520;-37
2022/08/10 07:00:40;;;;;;;;;;;24.80;50.10;;;;;;5042486;28;88323;-37
2022/08/10 07:03:08;;;;;;;;;;;24.80;50.00;;;;;;5045799;28;87050;-38
2022/08/10 07:05:37;;;;;;;;;;;24.80;50.10;;;;;;5042653;28;88156;-37
2022/08/10 07:08:02;;;;;;;;;;;24.80;50.10;;;;;;5042491;28;87157;-37
2022/08/10 07:10:29;;;;;;;;;;;24.80;50.10;;;;;;5042762;27;88066;-37
2022/08/10 07:12:55;;;;;;;;;;;24.80;50.30;;;;;;5042353;27;87428;-37
2022/08/10 07:15:22;;;;;;;;;;;24.70;50.10;;;;;;5042694;28;87086;-38
2022/08/10 07:17:50;;;;;;;;;;;24.80;50.20;;;;;;5043082;28;87531;-37
2022/08/10 07:20:17;;;;;;;;;;;24.80;50.30;;;;;;5041977;28;88840;-37
2022/08/10 07:22:44;;;;;;;;;;;24.80;50.10;;;;;;5042578;28;87056;-38
2022/08/10 07:25:11;;;;;;;;;;;24.80;50.30;;;;;;5045470;27;87345;-39
2022/08/10 07:27:38;;;;;;;;;;;24.80;50.30;;;;;;5042791;28;87089;-37
2022/08/10 07:30:04;;;;;;;;;;;24.80;50.20;;;;;;5042727;27;87019;-38
2022/08/10 07:32:32;;;;;;;;;;;24.90;50.30;;;;;;5042154;28;88364;-38
2022/08/10 07:34:58;;;;;;;;;;;24.80;50.40;;;;;;5042681;28;87149;-38
2022/08/10 07:37:24;;;;;;;;;;;24.90;50.40;;;;;;5042860;27;87649;-38
2022/08/10 07:39:51;;;;;;;;;;;24.80;50.50;;;;;;5042279;28;87206;-37
2022/08/10 07:42:21;;;;;;;;;;;24.80;50.30;;;;;;5042370;28;87173;-38
2022/08/10 07:44:47;;;;;;;;;;;24.90;50.40;;;;;;5042028;28;88230;-38
2022/08/10 07:47:14;;;;;;;;;;;24.80;50.40;;;;;;5044901;28;89755;-38
2022/08/10 07:49:41;;;;;;;;;;;24.80;50.40;;;;;;5042295;27;87100;-37
2022/08/10 07:52:07;;;;;;;;;;;24.80;50.50;;;;;;5042021;28;88545;-38
2022/08/10 07:54:44;;;;;;;;;;;24.80;50.40;;;;;;5042514;28;88402;-38
2022/08/10 07:57:13;;;;;;;;;;;24.90;50.40;;;;;;5042421;27;87364;-38
2022/08/10 07:59:40;;;;;;;;;;;24.90;50.40;;;;;;5042013;28;88131;-38
2022/08/10 08:02:07;;;;;;;;;;;24.80;50.50;;;;;;5042579;28;86426;-38
2022/08/10 08:04:34;;;;;;;;;;;24.90;50.70;;;;;;5042351;27;86962;-38
2022/08/10 08:07:03;;;;;;;;;;;24.80;50.50;;;;;;5042045;28;88027;-37
2022/08/10 08:09:29;;;;;;;;;;;24.90;50.60;;;;;;5044382;28;88044;-37
2022/08/10 08:11:55;;;;;;;;;;;24.90;50.50;;;;;;5041809;28;88009;-38
2022/08/10 08:14:21;;;;;;;;;;;24.90;50.50;;;;;;5042016;28;87081;-37
2022/08/10 08:16:49;;;;;;;;;;;24.90;50.60;;;;;;5042087;28;87606;-38
2022/08/10 08:19:16;;;;;;;;;;;24.90;50.50;;;;;;5041759;28;88124;-38
2022/08/10 08:21:42;;;;;;;;;;;24.90;50.50;;;;;;5042189;28;87031;-38
2022/08/10 08:24:08;;;;;;;;;;;24.90;50.60;;;;;;5042909;27;87311;-37
2022/08/10 08:26:35;;;;;;;;;;;24.80;50.50;;;;;;5045748;28;87074;-38
2022/08/10 08:29:01;;;;;;;;;;;24.90;50.50;;;;;;5048487;28;87110;-38
2022/08/10 08:31:27;;;;;;;;;;;24.90;50.60;;;;;;5044949;28;88074;-38
2022/08/10 08:33:53;;;;;;;;;;;24.90;50.60;;;;;;5044542;28;88013;-37
2022/08/10 08:36:19;;;;;;;;;;;24.90;50.70;;;;;;5045316;27;87837;-37
2022/08/10 08:38:46;;;;;;;;;;;24.90;50.60;;;;;;5044990;28;88098;-37
2022/08/10 08:41:14;;;;;;;;;;;24.90;50.60;;;;;;5045424;28;87003;-38
2022/08/10 08:43:47;;;;;;;;;;;24.90;50.50;;;;;;5045327;28;86986;-37
2022/08/10 08:46:13;;;;;;;;;;;25.00;50.50;;;;;;5044477;28;89749;-38
2022/08/10 08:48:41;;;;;;;;;;;25.00;50.70;;;;;;5045339;28;87129;-38
2022/08/10 08:51:16;;;;;;;;;;;25.00;50.70;;;;;;5048162;28;87682;-38
2022/08/10 08:53:43;;;;;;;;;;;24.90;50.60;;;;;;5045002;28;87093;-38
2022/08/10 08:56:09;;;;;;;;;;;25.00;50.60;;;;;;5044681;27;89172;-38
2022/08/10 08:58:55;;;;;;;;;;;25.00;50.60;;;;;;5043929;28;88945;-38
2022/08/10 09:01:36;;;;;;;;;;;25.00;50.50;;;;;;5044644;28;87323;-38
2022/08/10 09:04:20;;;;;;;;;;;25.00;50.80;;;;;;5044709;27;88332;-38
2022/08/10 09:07:07;;;;;;;;;;;25.00;50.60;;;;;;5044757;28;87975;-38
2022/08/10 09:09:51;;;;;;;;;;;25.00;50.60;;;;;;5044878;28;87551;-38
2022/08/10 09:12:35;;;;;;;;;;;25.00;50.60;;;;;;5044880;28;87122;-37
2022/08/10 09:15:19;;;;;;;;;;;25.00;50.60;;;;;;5047311;28;88031;-38
2022/08/10 09:17:53;;;;;;;;;;;25.00;50.60;;;;;;5045313;28;87374;-38
2022/08/10 09:20:28;;;;;;;;;;;25.00;50.60;;;;;;5044188;28;88144;-38
2022/08/10 09:22:53;;;;;;;;;;;25.10;50.60;;;;;;5044679;28;87043;-38
2022/08/10 09:25:21;;;;;;;;;;;25.10;50.70;;;;;;5044111;28;88023;-38
2022/08/10 09:27:48;;;;;;;;;;;25.10;50.70;;;;;;5044356;28;87520;-37
2022/08/10 09:30:21;;;;;;;;;;;25.10;50.60;;;;;;5044519;28;87207;-37
2022/08/10 09:32:59;;;;;;;;;;;25.10;50.60;;;;;;5043658;28;87431;-37
2022/08/10 09:35:28;;;;;;;;;;;25.20;50.90;;;;;;5043585;27;88105;-37
2022/08/10 09:37:53;;;;;;;;;;;25.20;51.10;;;;;;5045634;28;87118;-38
2022/08/10 09:40:34;;;;;;;;;;;25.20;50.80;;;;;;5044257;28;87986;-37
2022/08/10 09:43:08;;;;;;;;;;;25.20;52.00;;;;;;5044951;28;86271;-39
2022/08/10 09:45:33;;;;;;;;;;;25.30;52.80;;;;;;5044227;28;88118;-38
2022/08/10 09:48:12;;;;;;;;;;;25.30;52.70;;;;;;5043826;28;87369;-41
2022/08/10 09:50:56;;;;;;;;;;;25.40;52.60;;;;;;5043369;28;88026;-40
2022/08/10 09:53:34;;;;;;;;;;;25.40;53.10;;;;;;5044270;27;88109;-39
2022/08/10 09:56:18;;;;;;;;;;;25.50;52.40;;;;;;5043576;28;90074;-37
2022/08/10 09:58:50;;;;;;;;;;;25.50;52.50;;;;;;5043871;27;87230;-39
2022/08/10 10:01:31;;;;;;;;;;;25.50;53.30;;;;;;5046410;28;86888;-41
2022/08/10 10:04:10;;;;;;;;;;;25.60;54.80;;;;;;5044200;28;87062;-39
2022/08/10 10:06:38;;;;;;;;;;;25.70;54.00;;;;;;5044319;28;87003;-41
2022/08/10 10:09:04;;;;;;;;;;;25.70;52.70;;;;;;5044042;28;87237;-41
2022/08/10 10:11:35;;;;;;;;;;;25.70;52.60;;;;;;5043581;28;87154;-39
2022/08/10 10:14:11;;;;;;;;;;;25.70;52.70;;;;;;5043730;27;87438;-37
2022/08/10 10:16:40;;;;;;;;;;;25.80;52.70;;;;;;5042567;28;88926;-36
2022/08/10 10:19:18;;;;;;;;;;;25.80;53.30;;;;;;5043635;28;87125;-39
2022/08/10 10:21:47;;;;;;;;;;;25.80;53.10;;;;;;5043732;27;86958;-36
2022/08/10 10:24:34;;;;;;;;;;;25.90;52.90;;;;;;5046118;28;88037;-37
2022/08/10 10:27:18;;;;;;;;;;;25.90;52.90;;;;;;5043435;27;87492;-37
2022/08/10 10:29:52;;;;;;;;;;;25.90;53.90;;;;;;5041622;27;89315;-37
2022/08/10 10:32:24;;;;;;;;;;;25.90;53.50;;;;;;5040487;28;88381;-39
2022/08/10 10:35:08;;;;;;;;;;;25.90;53.80;;;;;;5043865;27;87873;-39
2022/08/10 10:37:35;;;;;;;;;;;26.00;53.50;;;;;;5043093;27;88018;-40
2022/08/10 10:40:02;;;;;;;;;;;26.00;53.70;;;;;;5043181;28;87085;-40
2022/08/10 10:42:30;;;;;;;;;;;26.00;54.00;;;;;;5042681;27;89132;-44
2022/08/10 10:45:14;;;;;;;;;;;26.00;53.60;;;;;;5045877;28;88034;-43
2022/08/10 10:48:02;;;;;;;;;;;26.00;53.60;;;;;;5042852;27;88606;-37
2022/08/10 10:50:34;;;;;;;;;;;26.00;51.20;;;;;;5020460;28;88076;-40
2022/08/10 10:53:05;;;;;;;;;;;26.00;50.30;;;;;;5023118;28;86997;-38
2022/08/10 10:55:34;;;;;;;;;;;26.00;50.80;;;;;;5023047;28;87573;-38
2022/08/10 10:58:18;;;;;;;;;;;26.00;51.80;;;;;;5037269;28;88075;-39
2022/08/10 11:00:47;;;;;;;;;;;26.10;51.40;;;;;;5043189;28;86585;-38
2022/08/10 11:03:24;;;;;;;;;;;26.10;51.40;;;;;;5043155;28;86871;-40
2022/08/10 11:06:08;;;;;;;;;;;26.10;51.90;;;;;;5042067;28;87213;-39
2022/08/10 11:08:35;;;;;;;;;;;26.20;51.70;;;;;;5045394;28;88038;-41
2022/08/10 11:11:03;;;;;;;;;;;26.20;52.20;;;;;;5042517;28;88488;-37
2022/08/10 11:13:33;;;;;;;;;;;26.20;51.90;;;;;;5042895;28;87083;-40
2022/08/10 11:16:03;;;;;;;;;;;26.30;52.00;;;;;;5042375;27;88798;-37
2022/08/10 11:18:32;;;;;;;;;;;26.30;51.90;;;;;;5042289;28;87168;-38
2022/08/10 11:21:01;;;;;;;;;;;26.30;52.10;;;;;;5042410;28;86970;-41
2022/08/10 11:23:40;;;;;;;;;;;26.40;52.30;;;;;;5042867;28;87269;-39
2022/08/10 11:26:12;;;;;;;;;;;26.40;51.90;;;;;;5043041;28;87466;-38
2022/08/10 11:28:41;;;;;;;;;;;26.40;52.20;;;;;;5042808;28;87023;-39
2022/08/10 11:31:16;;;;;;;;;;;26.40;52.20;;;;;;5045064;28;87984;-41
2022/08/10 11:34:02;;;;;;;;;;;26.50;53.00;;;;;;5042090;28;87996;-40
2022/08/10 11:36:31;;;;;;;;;;;26.50;52.70;;;;;;5042284;27;90146;-38
2022/08/10 11:39:01;;;;;;;;;;;26.50;52.20;;;;;;5042117;28;89448;-38
2022/08/10 11:41:39;;;;;;;;;;;26.50;52.20;;;;;;5042565;28;87180;-39
2022/08/10 11:44:14;;;;;;;;;;;26.50;52.00;;;;;;5042296;28;87363;-38
2022/08/10 11:46:45;;;;;;;;;;;26.50;50.70;;;;;;5042095;28;88000;-38
2022/08/10 11:49:12;;;;;;;;;;;26.50;49.70;;;;;;5041062;28;87351;-37
2022/08/10 11:51:42;;;;;;;;;;;26.50;48.90;;;;;;5041629;28;87537;-38
2022/08/10 11:54:09;;;;;;;;;;;26.50;48.80;;;;;;5042696;28;90961;-41
2022/08/10 11:56:45;;;;;;;;;;;26.50;47.90;;;;;;5041491;27;87272;-38
2022/08/10 12:01:56;;;;;;;;;;;26.50;49.00;;;;;;5045854;28;87052;-37
2022/08/10 12:04:23;;;;;;;;;;;26.50;49.70;;;;;;5045684;27;87818;-39
2022/08/10 12:06:50;;;;;;;;;;;26.50;49.80;;;;;;5044979;28;89497;-38
2022/08/10 12:09:17;;;;;;;;;;;26.50;49.90;;;;;;5045497;28;87472;-38
2022/08/10 12:11:42;;;;;;;;;;;26.40;50.00;;;;;;5045886;28;87546;-38
2022/08/10 12:14:14;;;;;;;;;;;26.40;50.10;;;;;;5045404;28;88120;-37
2022/08/10 12:16:41;;;;;;;;;;;26.40;50.20;;;;;;5048880;28;86353;-38
2022/08/10 12:19:14;;;;;;;;;;;26.50;50.30;;;;;;5045343;28;87965;-38
2022/08/10 12:21:43;;;;;;;;;;;26.50;50.20;;;;;;5045220;28;87112;-38
2022/08/10 12:24:28;;;;;;;;;;;26.50;50.10;;;;;;5044960;27;87738;-38
2022/08/10 12:27:06;;;;;;;;;;;26.50;50.10;;;;;;5045056;28;89454;-37
2022/08/10 12:29:40;;;;;;;;;;;26.50;50.10;;;;;;5045738;28;87031;-38
2022/08/10 12:32:16;;;;;;;;;;;26.50;50.00;;;;;;5045627;28;87380;-38
2022/08/10 12:34:56;;;;;;;;;;;26.60;50.20;;;;;;5044818;28;89495;-38
2022/08/10 12:37:25;;;;;;;;;;;26.60;50.10;;;;;;5045263;28;87062;-38
2022/08/10 12:39:59;;;;;;;;;;;26.60;50.00;;;;;;5047933;27;87461;-37
2022/08/10 12:42:28;;;;;;;;;;;26.60;49.90;;;;;;5045613;28;86193;-38
2022/08/10 12:44:58;;;;;;;;;;;26.70;50.00;;;;;;5044899;28;89478;-38
2022/08/10 12:47:33;;;;;;;;;;;26.70;49.90;;;;;;5044853;28;87225;-38
2022/08/10 12:50:06;;;;;;;;;;;26.70;49.90;;;;;;5044303;28;87814;-38
2022/08/10 12:52:36;;;;;;;;;;;26.70;49.70;;;;;;5044970;28;88375;-38
2022/08/10 12:55:04;;;;;;;;;;;26.70;50.00;;;;;;5044383;28;90522;-38
2022/08/10 12:57:33;;;;;;;;;;;26.80;50.00;;;;;;5044702;28;87118;-38
2022/08/10 13:00:00;;;;;;;;;;;26.80;50.00;;;;;;5047165;27;87583;-38
2022/08/10 13:02:30;;;;;;;;;;;26.80;49.90;;;;;;5044582;28;87045;-38
2022/08/10 13:04:57;;;;;;;;;;;26.80;49.90;;;;;;5045098;27;86953;-38
2022/08/10 13:07:33;;;;;;;;;;;26.90;49.80;;;;;;5045075;28;87184;-38
2022/08/10 13:10:07;;;;;;;;;;;26.90;49.90;;;;;;5044942;27;86910;-38
2022/08/10 13:12:34;;;;;;;;;;;26.90;49.90;;;;;;5044155;27;87751;-38
2022/08/10 13:15:19;;;;;;;;;;;26.90;49.90;;;;;;5043595;28;89040;-41
2022/08/10 13:17:45;;;;;;;;;;;;;;;;;;5043851;28;87216;-37
2022/08/10 13:20:11;;;;;;;;;;;;;;;;;;5044224;27;87068;-38
2022/08/10 13:22:37;;;;;;;;;;;;;;;;;;5046589;27;87514;-37
2022/08/10 13:25:03;;;;;;;;;;;;;;;;;;5044110;27;86965;-40
2022/08/10 13:27:29;;;;;;;;;;;;;;;;;;5044488;27;87894;-39
2022/08/10 13:29:55;;;;;;;;;;;;;;;;;;5044932;27;87120;-37
2022/08/10 13:32:21;;;;;;;;;;;;;;;;;;5044247;27;86216;-37
2022/08/10 13:34:47;;;;;;;;;;;;;;;;;;5042201;27;87979;-40
2022/08/10 13:37:13;;;;;;;;;;;;;;;;;;5043480;27;87426;-39
2022/08/10 13:39:38;;;;;;;;;;;;;;;;;;5043240;27;87963;-39
2022/08/10 13:42:04;;;;;;;;;;;;;;;;;;5043199;28;88459;-38
2022/08/10 13:44:30;;;;;;;;;;;;;;;;;;5037387;27;87109;-37
2022/08/10 13:46:56;;;;;;;;;;;;;;;;;;5022912;28;89337;-40
2022/08/10 13:49:22;;;;;;;;;;;;;;;;;;5023980;28;86896;-37
2022/08/10 13:51:48;;;;;;;;;;;;;;;;;;5024184;28;86949;-36
2022/08/10 13:54:14;;;;;;;;;;;;;;;;;;5023959;28;87945;-37
2022/08/10 13:56:40;;;;;;;;;;;;;;;;;;5024770;28;86250;-37
2022/08/10 13:59:06;;;;;;;;;;;;;;;;;;5024397;28;87057;-36
2022/08/10 14:01:32;;;;;;;;;;;;;;;;;;5023543;28;87130;-37
2022/08/10 14:03:58;;;;;;;;;;;;;;;;;;5023293;28;88023;-36
2022/08/10 14:06:23;;;;;;;;;;;;;;;;;;5026491;28;87813;-38
2022/08/10 14:08:49;;;;;;;;;;;;;;;;;;5024089;28;87198;-36
2022/08/10 14:11:15;;;;;;;;;;;;;;;;;;5024263;28;86967;-37
2022/08/10 14:13:41;;;;;;;;;;;;;;;;;;5023753;28;87992;-38
2022/08/10 14:16:07;;;;;;;;;;;;;;;;;;5024047;28;87176;-37
2022/08/10 14:18:33;;;;;;;;;;;;;;;;;;5023932;28;86881;-39
2022/08/10 14:20:59;;;;;;;;;;;;;;;;;;5023999;28;87305;-39
2022/08/10 14:23:26;;;;;;;;;;;;;;;;;;5031310;28;87139;-37
2022/08/10 14:25:52;;;;;;;;;;;;;;;;;;5042206;27;88181;-38
2022/08/10 14:28:18;;;;;;;;;;;;;;;;;;5044635;28;90662;-38
2022/08/10 14:30:45;;;;;;;;;;;;;;;;;;5043523;27;87754;-38
2022/08/10 14:33:11;;;;;;;;;;;;;;;;;;5042910;27;89538;-38
2022/08/10 14:35:36;;;;;;;;;;;;;;;;;;5043517;27;87272;-38
2022/08/10 14:38:02;;;;;;;;;;;;;;;;;;5043385;27;87086;-38
2022/08/10 14:40:28;;;;;;;;;;;;;;;;;;5043322;27;88056;-39
2022/08/10 14:42:54;;;;;;;;;;;;;;;;;;5043362;27;87082;-39
2022/08/10 14:45:20;;;;;;;;;;;;;;;;;;5043892;27;86993;-36
2022/08/10 14:47:46;;;;;;;;;;;;;;;;;;5043383;27;87926;-40